createdAt,value
2023-04-17T00:00:31.236Z,10.30
2023-04-17T00:02:58.265Z,10.30
2023-04-17T00:05:26.941Z,10.30
2023-04-17T00:07:57.382Z,10.20
2023-04-17T00:10:24.496Z,10.20
2023-04-17T00:12:51.416Z,10.20
2023-04-17T00:15:18.335Z,10.20
2023-04-17T00:17:45.395Z,10.20
2023-04-17T00:20:12.514Z,10.20
2023-04-17T00:22:39.821Z,10.20
2023-04-17T00:25:07.579Z,10.20
2023-04-17T00:27:34.691Z,10.20
2023-04-17T00:30:01.696Z,10.10
2023-04-17T00:32:28.722Z,10.10
2023-04-17T00:34:55.961Z,10.10
2023-04-17T00:37:22.933Z,10.00
2023-04-17T00:39:49.876Z,10.00
2023-04-17T00:42:16.797Z,9.90
2023-04-17T00:44:43.781Z,9.80
2023-04-17T00:47:11.287Z,9.80
2023-04-17T00:49:38.351Z,9.80
2023-04-17T00:52:06.037Z,9.80
2023-04-17T00:54:33.599Z,9.80
2023-04-17T00:57:01.605Z,9.80
2023-04-17T00:59:29.341Z,9.80
2023-04-17T01:01:56.438Z,9.70
2023-04-17T01:04:24.154Z,9.70
2023-04-17T01:06:53.425Z,9.70
2023-04-17T01:09:20.368Z,9.70
2023-04-17T01:11:47.278Z,9.70
2023-04-17T01:14:15.448Z,9.60
2023-04-17T01:16:44.735Z,9.70
2023-04-17T01:19:16.029Z,9.70
2023-04-17T01:21:42.992Z,9.70
2023-04-17T01:24:10.958Z,9.70
2023-04-17T01:26:38.905Z,9.70
2023-04-17T01:29:05.815Z,9.70
2023-04-17T01:31:32.979Z,9.70
2023-04-17T01:34:01.290Z,9.70
2023-04-17T01:36:29.287Z,9.60
2023-04-17T01:38:56.287Z,9.60
2023-04-17T01:41:23.411Z,9.60
2023-04-17T01:43:50.430Z,9.50
2023-04-17T01:46:17.549Z,9.50
2023-04-17T01:48:44.691Z,9.50
2023-04-17T01:51:11.835Z,9.40
2023-04-17T01:53:39.963Z,9.30
2023-04-17T01:56:07.830Z,9.30
2023-04-17T01:58:34.800Z,9.30
2023-04-17T02:01:01.805Z,9.20
2023-04-17T02:03:29.021Z,9.10
2023-04-17T02:05:56.082Z,9.10
2023-04-17T02:08:23.311Z,9.00
2023-04-17T02:10:50.449Z,8.90
2023-04-17T02:13:17.367Z,8.90
2023-04-17T02:15:44.583Z,8.90
2023-04-17T02:18:12.130Z,8.80
2023-04-17T02:20:39.794Z,8.80
2023-04-17T02:23:07.078Z,8.80
2023-04-17T02:25:34.398Z,8.70
2023-04-17T02:28:01.391Z,8.60
2023-04-17T02:30:28.957Z,8.50
2023-04-17T02:32:56.421Z,8.50
2023-04-17T02:35:28.199Z,8.50
2023-04-17T02:37:55.450Z,8.60
2023-04-17T02:40:22.505Z,8.60
2023-04-17T02:42:49.552Z,8.60
2023-04-17T02:45:16.558Z,8.60
2023-04-17T02:47:43.525Z,8.50
2023-04-17T02:50:11.236Z,8.60
2023-04-17T02:52:38.254Z,8.50
2023-04-17T02:55:06.999Z,8.50
2023-04-17T02:57:33.987Z,8.50
2023-04-17T03:00:01.868Z,8.40
2023-04-17T03:02:30.748Z,8.40
2023-04-17T03:04:57.825Z,8.30
2023-04-17T03:07:27.588Z,8.30
2023-04-17T03:09:57.692Z,8.20
2023-04-17T03:12:24.915Z,8.20
2023-04-17T03:14:52.528Z,8.20
2023-04-17T03:17:20.975Z,8.10
2023-04-17T03:19:48.070Z,8.10
2023-04-17T03:22:15.134Z,8.10
2023-04-17T03:24:42.172Z,8.10
2023-04-17T03:27:09.267Z,8.10
2023-04-17T03:29:36.519Z,8.00
2023-04-17T03:32:03.913Z,8.00
2023-04-17T03:34:31.620Z,8.10
2023-04-17T03:36:59.200Z,8.10
2023-04-17T03:39:26.856Z,8.10
2023-04-17T03:41:53.932Z,8.10
2023-04-17T03:44:21.216Z,8.10
2023-04-17T03:46:48.159Z,8.20
2023-04-17T03:49:15.089Z,8.20
2023-04-17T03:51:43.082Z,8.20
2023-04-17T03:54:10.268Z,8.20
2023-04-17T03:56:37.446Z,8.10
2023-04-17T03:59:07.183Z,8.20
2023-04-17T04:01:34.307Z,8.20
2023-04-17T04:04:01.956Z,8.20
2023-04-17T04:06:30.120Z,8.20
2023-04-17T04:08:57.346Z,8.20
2023-04-17T04:11:24.278Z,8.20
2023-04-17T04:13:51.441Z,8.20
2023-04-17T04:16:18.488Z,8.20
2023-04-17T04:18:45.582Z,8.20
2023-04-17T04:21:12.822Z,8.20
2023-04-17T04:23:41.545Z,8.20
2023-04-17T04:26:08.609Z,8.10
2023-04-17T04:28:35.630Z,8.20
2023-04-17T04:31:02.919Z,8.20
2023-04-17T04:33:30.339Z,8.20
2023-04-17T04:36:01.278Z,8.20
2023-04-17T04:38:33.063Z,8.20
2023-04-17T04:41:06.547Z,8.20
2023-04-17T04:43:34.088Z,8.20
2023-04-17T04:46:01.053Z,8.20
2023-04-17T04:48:29.142Z,8.10
2023-04-17T04:50:56.484Z,8.10
2023-04-17T04:53:23.540Z,8.20
2023-04-17T04:55:50.508Z,8.20
2023-04-17T04:58:17.418Z,8.20
2023-04-17T05:00:44.752Z,8.10
2023-04-17T05:03:12.940Z,8.20
2023-04-17T05:05:41.207Z,8.20
2023-04-17T05:08:08.182Z,8.20
2023-04-17T05:10:35.143Z,8.20
2023-04-17T05:13:02.092Z,8.20
2023-04-17T05:15:29.303Z,8.20
2023-04-17T05:17:56.408Z,8.10
2023-04-17T05:20:23.670Z,8.10
2023-04-17T05:22:50.866Z,8.10
2023-04-17T05:25:19.777Z,8.10
2023-04-17T05:27:46.794Z,8.20
2023-04-17T05:30:14.714Z,8.10
2023-04-17T05:32:41.911Z,8.20
2023-04-17T05:35:09.366Z,8.20
2023-04-17T05:37:39.189Z,8.20
2023-04-17T05:40:07.269Z,8.20
2023-04-17T05:42:34.948Z,8.30
2023-04-17T05:45:02.071Z,8.40
2023-04-17T05:47:29.211Z,8.30
2023-04-17T05:49:58.286Z,8.40
2023-04-17T05:52:25.803Z,8.40
2023-04-17T05:54:52.783Z,8.50
2023-04-17T05:57:20.130Z,8.50
2023-04-17T05:59:49.453Z,8.60
2023-04-17T06:02:17.506Z,8.50
2023-04-17T06:07:34.917Z,8.50
2023-04-17T06:10:02.698Z,8.50
2023-04-17T06:15:27.597Z,8.60
2023-04-17T06:17:54.654Z,8.70
2023-04-17T06:20:21.680Z,8.80
2023-04-17T06:22:49.703Z,8.90
2023-04-17T06:25:16.752Z,8.90
2023-04-17T06:27:43.778Z,8.90
2023-04-17T06:30:13.508Z,8.90
2023-04-17T06:32:43.932Z,9.00
2023-04-17T06:35:11.670Z,9.20
2023-04-17T06:37:38.771Z,9.20
2023-04-17T06:40:06.666Z,9.30
2023-04-17T06:42:35.651Z,9.30
2023-04-17T06:45:04.869Z,9.30
2023-04-17T06:47:31.954Z,9.30
2023-04-17T06:50:00.066Z,9.30
2023-04-17T06:52:27.098Z,9.30
2023-04-17T06:54:55.238Z,9.40
2023-04-17T06:57:22.725Z,9.40
2023-04-17T07:02:26.600Z,9.60
2023-04-17T07:04:55.242Z,9.60
2023-04-17T07:07:23.235Z,9.60
2023-04-17T07:09:50.700Z,9.70
2023-04-17T07:12:17.671Z,9.70
2023-04-17T07:14:44.839Z,9.70
2023-04-17T07:17:11.920Z,9.80
2023-04-17T07:19:39.149Z,9.90
2023-04-17T07:22:06.065Z,10.00
2023-04-17T07:24:35.225Z,10.00
2023-04-17T07:27:04.259Z,10.00
2023-04-17T07:29:31.416Z,10.00
2023-04-17T07:31:58.861Z,10.00
2023-04-17T07:34:25.952Z,10.00
2023-04-17T07:36:53.510Z,10.10
2023-04-17T07:39:20.601Z,10.10
2023-04-17T07:41:48.216Z,10.10
2023-04-17T07:44:15.184Z,10.20
2023-04-17T07:46:42.392Z,10.20
2023-04-17T07:49:11.998Z,10.30
2023-04-17T07:51:41.360Z,10.30
2023-04-17T07:54:08.709Z,10.30
2023-04-17T07:56:36.898Z,10.40
2023-04-17T07:59:05.043Z,10.40
2023-04-17T08:04:13.778Z,10.50
2023-04-17T08:47:43.188Z,10.60
2023-04-17T08:50:15.840Z,10.60
2023-04-17T08:52:48.055Z,10.60
2023-04-17T08:55:20.494Z,10.60
2023-04-17T08:57:54.431Z,10.60
2023-04-17T09:00:25.984Z,10.60
2023-04-17T09:02:55.185Z,10.60
2023-04-17T09:05:23.939Z,10.60
2023-04-17T09:08:05.545Z,10.60
2023-04-17T09:10:44.863Z,10.60
2023-04-17T09:13:16.230Z,10.60
2023-04-17T09:16:05.788Z,10.70
2023-04-17T09:18:33.954Z,10.70
2023-04-17T09:21:02.078Z,10.70
2023-04-17T09:23:31.252Z,10.70
2023-04-17T09:26:13.714Z,10.60
2023-04-17T09:28:41.463Z,10.70
2023-04-17T09:31:20.575Z,10.60
2023-04-17T09:34:00.439Z,10.70
2023-04-17T09:36:30.778Z,10.80
2023-04-17T09:39:02.364Z,10.80
2023-04-17T09:41:31.887Z,10.80
2023-04-17T09:44:02.183Z,10.90
2023-04-17T09:46:46.185Z,10.80
2023-04-17T09:49:33.944Z,10.80
2023-04-17T09:52:01.144Z,10.80
2023-04-17T09:54:31.573Z,10.90
2023-04-17T09:56:59.358Z,10.90
2023-04-17T09:59:27.004Z,11.00
2023-04-17T10:01:57.185Z,11.00
2023-04-17T10:04:24.757Z,11.10
2023-04-17T10:06:51.779Z,11.10
2023-04-17T10:09:18.660Z,11.20
2023-04-17T10:11:49.749Z,11.20
2023-04-17T10:14:34.329Z,11.20
2023-04-17T10:17:25.464Z,11.10
2023-04-17T10:19:52.762Z,11.20
2023-04-17T10:22:19.657Z,11.30
2023-04-17T10:25:14.870Z,11.30
2023-04-17T10:27:41.785Z,11.50
2023-04-17T10:30:12.826Z,11.80
2023-04-17T10:32:42.604Z,11.90
2023-04-17T10:35:19.738Z,12.00
2023-04-17T10:37:50.356Z,12.30
2023-04-17T10:40:21.507Z,12.30
2023-04-17T10:43:13.186Z,12.20
2023-04-17T10:45:58.561Z,12.30
2023-04-17T10:48:49.752Z,12.20
2023-04-17T10:51:29.160Z,12.30
2023-04-17T10:54:00.828Z,12.40
2023-04-17T10:56:30.918Z,12.40
2023-04-17T10:59:09.002Z,12.50
2023-04-17T11:01:48.264Z,12.50
2023-04-17T11:04:31.067Z,12.30
2023-04-17T11:06:58.611Z,12.40
2023-04-17T11:09:28.264Z,12.60
2023-04-17T11:11:58.930Z,12.60
2023-04-17T11:14:26.873Z,12.80
2023-04-17T11:16:53.894Z,12.90
2023-04-17T11:19:23.190Z,13.00
2023-04-17T11:21:52.175Z,13.00
2023-04-17T11:24:26.880Z,13.20
2023-04-17T11:26:54.619Z,13.50
2023-04-17T11:29:23.119Z,13.50
2023-04-17T11:31:52.449Z,13.70
2023-04-17T11:34:19.919Z,13.70
2023-04-17T11:36:51.275Z,13.50
2023-04-17T11:39:20.081Z,13.60
2023-04-17T11:41:47.323Z,13.60
2023-04-17T11:44:15.747Z,13.40
2023-04-17T11:46:42.802Z,13.40
2023-04-17T11:49:10.443Z,13.40
2023-04-17T11:51:40.623Z,13.60
2023-04-17T11:54:07.678Z,13.70
2023-04-17T11:56:34.769Z,13.90
2023-04-17T11:59:05.920Z,14.20
2023-04-17T12:01:33.311Z,14.30
2023-04-17T12:04:00.499Z,14.50
2023-04-17T12:06:38.411Z,14.60
2023-04-17T12:09:07.125Z,14.70
2023-04-17T12:11:34.549Z,15.00
2023-04-17T12:14:02.430Z,15.40
2023-04-17T12:16:29.804Z,15.40
2023-04-17T12:18:57.402Z,15.50
2023-04-17T12:21:24.670Z,15.50
2023-04-17T12:23:52.255Z,15.60
2023-04-17T12:26:19.407Z,16.00
2023-04-17T12:28:46.446Z,16.10
2023-04-17T12:31:13.677Z,16.40
2023-04-17T12:33:40.632Z,16.50
2023-04-17T12:36:08.136Z,16.50
2023-04-17T12:38:36.106Z,16.40
2023-04-17T12:41:03.261Z,16.10
2023-04-17T12:43:32.606Z,16.00
2023-04-17T12:45:59.675Z,15.90
2023-04-17T12:48:26.721Z,15.50
2023-04-17T12:50:54.575Z,15.50
2023-04-17T12:53:21.807Z,15.50
2023-04-17T12:55:48.800Z,15.50
2023-04-17T12:58:16.417Z,15.30
2023-04-17T13:00:46.273Z,15.20
2023-04-17T13:03:13.682Z,15.10
2023-04-17T13:05:40.911Z,15.30
2023-04-17T13:08:12.519Z,15.20
2023-04-17T13:10:39.491Z,15.10
2023-04-17T13:13:06.463Z,15.10
2023-04-17T13:15:33.474Z,14.90
2023-04-17T13:18:00.884Z,14.80
2023-04-17T13:20:28.325Z,14.50
2023-04-17T13:22:56.861Z,14.50
2023-04-17T13:25:25.305Z,14.40
2023-04-17T13:27:52.532Z,14.10
2023-04-17T13:30:19.416Z,14.10
2023-04-17T13:32:46.387Z,14.40
2023-04-17T13:35:13.617Z,14.60
2023-04-17T13:37:41.455Z,14.80
2023-04-17T13:40:12.261Z,14.80
2023-04-17T13:42:39.293Z,15.00
2023-04-17T13:45:07.474Z,14.90
2023-04-17T13:47:34.600Z,15.10
2023-04-17T13:50:02.001Z,15.10
2023-04-17T13:52:29.204Z,15.50
2023-04-17T13:54:56.253Z,15.60
2023-04-17T13:57:23.260Z,15.70
2023-04-17T13:59:50.280Z,15.80
2023-04-17T14:02:17.385Z,16.00
2023-04-17T14:04:44.496Z,16.30
2023-04-17T14:07:12.975Z,16.40
2023-04-17T14:09:40.154Z,16.50
2023-04-17T14:12:07.186Z,16.40
2023-04-17T14:14:34.211Z,15.90
2023-04-17T14:17:01.405Z,15.70
2023-04-17T14:19:28.459Z,15.80
2023-04-17T14:21:55.564Z,16.00
2023-04-17T14:24:22.488Z,16.10
2023-04-17T14:26:49.421Z,16.30
2023-04-17T14:29:16.327Z,16.40
2023-04-17T14:31:43.403Z,16.60
2023-04-17T14:34:10.527Z,16.70
2023-04-17T14:36:37.642Z,16.90
2023-04-17T14:39:04.622Z,16.80
2023-04-17T14:41:34.195Z,16.80
2023-04-17T14:44:01.434Z,16.70
2023-04-17T14:46:28.522Z,16.50
2023-04-17T14:48:56.575Z,16.20
2023-04-17T14:51:27.267Z,15.80
2023-04-17T14:53:54.533Z,15.70
2023-04-17T14:56:21.907Z,15.30
2023-04-17T14:58:49.235Z,14.90
2023-04-17T15:01:16.493Z,14.50
2023-04-17T15:03:47.500Z,14.50
2023-04-17T15:06:15.867Z,14.50
2023-04-17T15:08:42.867Z,14.60
2023-04-17T15:11:10.007Z,14.70
2023-04-17T15:13:37.016Z,15.00
2023-04-17T15:16:04.243Z,15.40
2023-04-17T15:18:31.252Z,15.70
2023-04-17T15:20:58.515Z,16.00
2023-04-17T15:23:29.747Z,16.20
2023-04-17T15:25:58.024Z,16.40
2023-04-17T15:28:25.543Z,16.20
2023-04-17T15:30:52.651Z,16.10
2023-04-17T15:33:20.008Z,16.00
2023-04-17T15:35:47.224Z,15.80
2023-04-17T15:38:14.188Z,15.70
2023-04-17T15:40:41.094Z,15.60
2023-04-17T15:43:08.239Z,15.50
2023-04-17T15:45:35.239Z,15.50
2023-04-17T15:48:02.293Z,15.50
2023-04-17T15:50:29.505Z,15.30
2023-04-17T15:52:56.583Z,15.40
2023-04-17T15:55:23.716Z,15.40
2023-04-17T15:57:50.769Z,15.30
2023-04-17T16:00:18.218Z,15.20
2023-04-17T16:02:48.031Z,15.00
2023-04-17T16:05:16.053Z,14.80
2023-04-17T16:07:43.156Z,14.70
2023-04-17T16:10:13.839Z,14.60
2023-04-17T16:12:43.273Z,14.50
2023-04-17T16:15:12.193Z,14.50
2023-04-17T16:17:39.186Z,14.50
2023-04-17T16:20:06.936Z,14.60
2023-04-17T16:22:33.864Z,14.60
2023-04-17T16:25:01.946Z,14.60
2023-04-17T16:27:29.911Z,14.60
2023-04-17T16:29:56.855Z,14.50
2023-04-17T16:32:25.111Z,14.40
2023-04-17T16:34:52.731Z,14.40
2023-04-17T16:37:19.783Z,14.40
2023-04-17T16:39:47.339Z,14.20
2023-04-17T16:42:14.653Z,13.90
2023-04-17T16:44:41.766Z,13.80
2023-04-17T16:47:14.161Z,13.70
2023-04-17T16:49:42.225Z,13.70
2023-04-17T16:52:09.783Z,13.60
2023-04-17T16:54:36.694Z,13.60
2023-04-17T16:57:04.035Z,13.40
2023-04-17T16:59:30.982Z,13.20
2023-04-17T17:01:59.136Z,13.00
2023-04-17T17:04:27.968Z,13.00
2023-04-17T17:06:55.007Z,12.90
2023-04-17T17:09:21.988Z,12.90
2023-04-17T17:11:48.953Z,12.80
2023-04-17T17:14:16.275Z,12.70
2023-04-17T17:16:43.401Z,12.60
2023-04-17T17:19:10.909Z,12.50
2023-04-17T17:21:38.025Z,12.40
2023-04-17T17:24:05.436Z,12.30
2023-04-17T17:26:32.608Z,12.30
2023-04-17T17:28:59.645Z,12.30
2023-04-17T17:31:26.868Z,12.20
2023-04-17T17:33:55.486Z,12.10
2023-04-17T17:36:22.404Z,12.00
2023-04-17T17:38:56.172Z,12.00
2023-04-17T17:41:23.996Z,11.90
2023-04-17T17:43:51.301Z,11.90
2023-04-17T17:46:19.661Z,11.80
2023-04-17T17:48:46.742Z,11.70
2023-04-17T17:51:13.850Z,11.70
2023-04-17T17:53:41.451Z,11.70
2023-04-17T17:56:08.461Z,11.50
2023-04-17T17:58:35.732Z,11.50
2023-04-17T18:01:02.866Z,11.60
2023-04-17T18:03:30.481Z,11.50
2023-04-17T18:05:57.929Z,11.50
2023-04-17T18:08:24.837Z,11.50
2023-04-17T18:10:52.029Z,11.40
2023-04-17T18:13:19.202Z,11.40
2023-04-17T18:15:46.272Z,11.40
2023-04-17T18:18:13.255Z,11.40
2023-04-17T18:20:40.493Z,11.30
2023-04-17T18:23:07.527Z,11.30
2023-04-17T18:25:39.138Z,11.20
2023-04-17T18:28:06.803Z,11.20
2023-04-17T18:30:33.735Z,11.10
2023-04-17T18:33:00.972Z,11.00
2023-04-17T18:35:27.930Z,10.90
2023-04-17T18:37:54.905Z,10.80
2023-04-17T18:40:21.846Z,10.80
2023-04-17T18:42:48.845Z,10.70
2023-04-17T18:45:16.114Z,10.70
2023-04-17T18:47:43.493Z,10.60
2023-04-17T18:50:11.492Z,10.60
2023-04-17T18:52:41.026Z,10.50
2023-04-17T18:55:10.173Z,10.40
2023-04-17T18:57:37.753Z,10.40
2023-04-17T19:00:05.596Z,10.30
2023-04-17T19:02:32.836Z,10.30
2023-04-17T19:04:59.942Z,10.30
2023-04-17T19:07:27.084Z,10.20
2023-04-17T19:09:54.130Z,10.30
2023-04-17T19:12:21.064Z,10.20
2023-04-17T19:14:48.067Z,10.10
2023-04-17T19:17:16.109Z,10.20
2023-04-17T19:19:43.010Z,10.20
2023-04-17T19:22:09.956Z,10.10
2023-04-17T19:24:37.116Z,10.10
2023-04-17T19:27:04.220Z,10.10
2023-04-17T19:29:31.441Z,10.00
2023-04-17T19:31:58.478Z,10.10
2023-04-17T19:34:25.699Z,10.10
2023-04-17T19:36:52.837Z,10.10
2023-04-17T19:39:19.996Z,10.00
2023-04-17T19:41:50.991Z,10.00
2023-04-17T19:44:18.498Z,10.00
2023-04-17T19:46:45.550Z,10.00
2023-04-17T19:49:12.934Z,10.00
2023-04-17T19:51:40.054Z,9.90
2023-04-17T19:56:42.485Z,9.80
2023-04-17T19:59:12.678Z,9.70
2023-04-17T20:01:42.155Z,9.70
2023-04-17T20:04:10.955Z,9.60
2023-04-17T20:06:39.754Z,9.70
2023-04-17T20:09:07.048Z,9.70
2023-04-17T20:11:34.697Z,9.60
2023-04-17T20:14:01.705Z,9.60
2023-04-17T20:16:28.704Z,9.50
2023-04-17T20:18:56.809Z,9.40
2023-04-17T20:21:24.195Z,9.50
2023-04-17T20:23:51.648Z,9.50
2023-04-17T20:26:18.605Z,9.50
2023-04-17T20:28:46.012Z,9.50
2023-04-17T20:31:12.994Z,9.50
2023-04-17T20:33:40.130Z,9.40
2023-04-17T20:36:07.176Z,9.50
2023-04-17T20:38:34.280Z,9.40
2023-04-17T20:41:01.332Z,9.40
2023-04-17T20:43:28.239Z,9.40
2023-04-17T20:45:55.239Z,9.40
2023-04-17T20:48:22.439Z,9.40
2023-04-17T20:50:49.546Z,9.40
2023-04-17T20:53:16.638Z,9.30
2023-04-17T20:55:43.686Z,9.20
2023-04-17T20:58:10.813Z,9.30
2023-04-17T21:00:44.523Z,9.20
2023-04-17T21:03:14.574Z,9.20
2023-04-17T21:05:41.633Z,9.20
2023-04-17T21:08:08.557Z,9.10
2023-04-17T21:10:35.520Z,9.10
2023-04-17T21:13:02.499Z,9.00
2023-04-17T21:15:29.446Z,8.90
2023-04-17T21:17:56.396Z,9.00
2023-04-17T21:20:23.655Z,8.90
2023-04-17T21:22:50.551Z,8.90
2023-04-17T21:25:17.571Z,8.90
2023-04-17T21:27:44.667Z,8.90
2023-04-17T21:30:11.814Z,9.00
2023-04-17T21:32:39.411Z,9.00
2023-04-17T21:35:07.002Z,9.00
2023-04-17T21:37:33.925Z,9.00
2023-04-17T21:40:00.850Z,9.00
2023-04-17T21:42:27.765Z,9.00
2023-04-17T21:44:54.708Z,9.00
2023-04-17T21:47:21.701Z,9.00
2023-04-17T21:49:49.178Z,9.00
2023-04-17T21:52:17.205Z,9.00
2023-04-17T21:54:44.143Z,8.90
2023-04-17T21:57:11.052Z,8.90
2023-04-17T21:59:38.050Z,8.90
2023-04-17T22:02:05.014Z,8.80
2023-04-17T22:04:32.146Z,8.90
2023-04-17T22:06:59.251Z,8.90
2023-04-17T22:09:28.456Z,8.90
2023-04-17T22:11:56.668Z,8.80
2023-04-17T22:14:23.662Z,8.80
2023-04-17T22:16:50.662Z,8.80
2023-04-17T22:19:17.625Z,8.70
2023-04-17T22:21:44.641Z,8.70
2023-04-17T22:24:11.889Z,8.70
2023-04-17T22:26:39.019Z,8.60
2023-04-17T22:29:06.138Z,8.60
2023-04-17T22:31:33.125Z,8.70
2023-04-17T22:34:00.140Z,8.60
2023-04-17T22:36:27.585Z,8.70
2023-04-17T22:38:54.820Z,8.70
2023-04-17T22:41:21.799Z,8.70
2023-04-17T22:43:52.036Z,8.60
2023-04-17T22:46:19.060Z,8.60
2023-04-17T22:48:46.273Z,8.60
2023-04-17T22:51:13.543Z,8.50
2023-04-17T22:53:40.559Z,8.50
2023-04-17T22:56:12.431Z,8.40
2023-04-17T22:58:39.428Z,8.40
2023-04-17T23:01:06.676Z,8.40
2023-04-17T23:03:35.192Z,8.30
2023-04-17T23:06:03.151Z,8.20
2023-04-17T23:08:30.628Z,8.30
2023-04-17T23:11:01.753Z,8.30
2023-04-17T23:13:31.850Z,8.10
2023-04-17T23:15:58.950Z,8.10
2023-04-17T23:18:26.237Z,8.00
2023-04-17T23:20:53.201Z,7.90
2023-04-17T23:23:20.280Z,7.90
2023-04-17T23:25:47.363Z,7.80
2023-04-17T23:28:14.722Z,7.70
2023-04-17T23:30:41.721Z,7.60
2023-04-17T23:33:09.761Z,7.60
2023-04-17T23:35:36.747Z,7.50
2023-04-17T23:38:03.769Z,7.50
2023-04-17T23:40:32.850Z,7.30
2023-04-17T23:42:59.828Z,7.30
2023-04-17T23:45:26.777Z,7.20
2023-04-17T23:47:53.892Z,7.20
2023-04-17T23:50:20.971Z,7.10
2023-04-17T23:52:47.973Z,7.10
2023-04-17T23:55:15.057Z,7.00
2023-04-17T23:57:41.978Z,6.90
